createdAt,value
2023-01-28T00:00:06.786Z,5.50
2023-01-28T00:02:42.512Z,5.50
2023-01-28T00:05:12.125Z,5.60
2023-01-28T00:07:40.131Z,5.60
2023-01-28T00:10:10.421Z,5.60
2023-01-28T00:12:38.170Z,5.60
2023-01-28T00:15:06.973Z,5.60
2023-01-28T00:17:34.884Z,5.70
2023-01-28T00:20:02.572Z,5.70
2023-01-28T00:22:30.409Z,5.70
2023-01-28T00:24:58.179Z,5.70
2023-01-28T00:27:27.303Z,5.60
2023-01-28T00:29:55.465Z,5.60
2023-01-28T00:32:23.189Z,5.70
2023-01-28T00:34:50.898Z,5.60
2023-01-28T00:37:18.631Z,5.60
2023-01-28T00:39:46.359Z,5.50
2023-01-28T00:42:14.073Z,5.50
2023-01-28T00:44:43.191Z,5.50
2023-01-28T00:47:10.906Z,5.50
2023-01-28T00:49:38.621Z,5.60
2023-01-28T00:52:06.444Z,5.50
2023-01-28T00:54:34.189Z,5.50
2023-01-28T00:57:01.905Z,5.50
2023-01-28T00:59:32.710Z,5.40
2023-01-28T01:02:12.198Z,5.30
2023-01-28T01:04:40.201Z,5.20
2023-01-28T01:07:10.751Z,5.20
2023-01-28T01:09:38.521Z,5.30
2023-01-28T01:12:06.958Z,5.30
2023-01-28T01:14:34.864Z,5.30
2023-01-28T01:17:03.935Z,5.30
2023-01-28T01:19:32.370Z,5.30
2023-01-28T01:22:00.134Z,5.30
2023-01-28T01:24:33.788Z,5.20
2023-01-28T01:27:01.631Z,5.10
2023-01-28T01:29:29.681Z,5.10
2023-01-28T01:31:57.456Z,5.00
2023-01-28T01:34:26.823Z,4.70
2023-01-28T01:36:54.567Z,4.70
2023-01-28T01:39:22.324Z,4.50
2023-01-28T01:41:50.019Z,4.60
2023-01-28T01:44:54.098Z,4.80
2023-01-28T01:47:25.358Z,4.90
2023-01-28T01:49:55.624Z,5.00
2023-01-28T01:52:27.759Z,4.90
2023-01-28T01:54:58.151Z,4.70
2023-01-28T01:57:31.886Z,4.60
2023-01-28T02:00:06.345Z,4.70
2023-01-28T02:02:40.395Z,4.70
2023-01-28T02:05:10.791Z,4.50
2023-01-28T02:07:39.398Z,4.20
2023-01-28T02:10:09.514Z,4.20
2023-01-28T02:12:40.041Z,4.40
2023-01-28T02:15:11.191Z,4.60
2023-01-28T02:17:39.431Z,4.50
2023-01-28T02:20:12.090Z,4.50
2023-01-28T02:23:04.263Z,4.30
2023-01-28T02:26:08.655Z,4.10
2023-01-28T02:28:45.324Z,4.30
2023-01-28T02:31:18.807Z,4.30
2023-01-28T02:33:53.922Z,4.30
2023-01-28T02:36:28.803Z,4.30
2023-01-28T02:39:00.116Z,4.30
2023-01-28T02:41:33.347Z,4.10
2023-01-28T02:44:04.699Z,4.10
2023-01-28T02:46:55.030Z,4.30
2023-01-28T02:49:27.696Z,4.40
2023-01-28T02:52:20.775Z,4.30
2023-01-28T02:54:56.185Z,4.30
2023-01-28T02:57:33.291Z,4.20
2023-01-28T03:00:11.357Z,4.20
2023-01-28T03:02:45.746Z,4.20
2023-01-28T03:05:22.306Z,4.40
2023-01-28T03:07:51.120Z,4.40
2023-01-28T03:10:20.082Z,4.30
2023-01-28T03:13:09.663Z,4.00
2023-01-28T03:15:59.866Z,3.90
2023-01-28T03:18:49.395Z,3.90
2023-01-28T03:21:38.982Z,4.00
2023-01-28T03:24:27.794Z,4.00
2023-01-28T03:27:20.753Z,4.10
2023-01-28T03:30:08.827Z,4.40
2023-01-28T03:32:56.990Z,4.60
2023-01-28T03:35:45.787Z,4.60
2023-01-28T03:38:20.955Z,4.50
2023-01-28T03:40:53.254Z,4.70
2023-01-28T03:43:21.168Z,4.70
2023-01-28T03:45:51.532Z,4.80
2023-01-28T03:48:21.051Z,4.90
2023-01-28T03:50:49.300Z,4.90
2023-01-28T03:53:17.553Z,4.90
2023-01-28T03:55:45.940Z,5.00
2023-01-28T03:58:14.791Z,5.10
2023-01-28T04:00:43.383Z,5.10
2023-01-28T04:03:16.114Z,5.10
2023-01-28T04:05:46.446Z,5.10
2023-01-28T04:08:14.776Z,5.10
2023-01-28T04:10:43.845Z,5.10
2023-01-28T04:13:13.452Z,5.10
2023-01-28T04:15:41.304Z,5.10
2023-01-28T04:18:09.080Z,5.10
2023-01-28T04:20:37.387Z,5.10
2023-01-28T04:23:07.711Z,5.20
2023-01-28T04:25:35.932Z,5.30
2023-01-28T04:28:03.696Z,5.30
2023-01-28T04:30:31.477Z,5.30
2023-01-28T04:32:59.248Z,5.30
2023-01-28T04:35:26.944Z,5.30
2023-01-28T04:37:54.656Z,5.20
2023-01-28T04:40:23.697Z,5.10
2023-01-28T04:42:54.733Z,5.20
2023-01-28T04:45:22.477Z,5.30
2023-01-28T04:47:50.509Z,5.20
2023-01-28T04:50:18.625Z,5.20
2023-01-28T04:52:46.433Z,5.20
2023-01-28T04:55:14.739Z,5.20
2023-01-28T04:57:44.038Z,5.20
2023-01-28T05:00:12.709Z,5.20
2023-01-28T05:02:40.467Z,5.20
2023-01-28T05:05:09.526Z,5.10
2023-01-28T05:07:37.290Z,4.90
2023-01-28T05:10:06.533Z,4.80
2023-01-28T05:12:34.285Z,4.90
2023-01-28T05:15:04.175Z,4.90
2023-01-28T05:17:31.902Z,5.00
2023-01-28T05:19:59.624Z,5.00
2023-01-28T05:22:27.379Z,5.00
2023-01-28T05:24:55.108Z,5.10
2023-01-28T05:27:22.948Z,5.10
2023-01-28T05:29:50.684Z,5.00
2023-01-28T05:32:19.786Z,5.00
2023-01-28T05:34:47.545Z,5.00
2023-01-28T05:37:15.275Z,5.10
2023-01-28T05:39:43.132Z,5.10
2023-01-28T05:42:10.921Z,5.10
2023-01-28T05:44:38.832Z,4.90
2023-01-28T05:47:06.538Z,4.60
2023-01-28T05:49:35.553Z,4.50
2023-01-28T05:52:03.275Z,4.60
2023-01-28T05:54:31.640Z,4.60
2023-01-28T05:56:59.357Z,4.70
2023-01-28T05:59:27.196Z,4.90
2023-01-28T06:01:54.928Z,4.90
2023-01-28T06:04:22.664Z,4.90
2023-01-28T06:06:51.705Z,5.10
2023-01-28T06:09:19.605Z,5.00
2023-01-28T06:11:47.356Z,5.00
2023-01-28T06:14:15.276Z,5.00
2023-01-28T06:16:42.968Z,5.00
2023-01-28T06:19:10.706Z,4.80
2023-01-28T06:21:38.499Z,4.40
2023-01-28T06:24:07.882Z,4.50
2023-01-28T06:26:35.602Z,4.50
2023-01-28T06:29:03.364Z,4.50
2023-01-28T06:31:31.059Z,4.20
2023-01-28T06:33:58.768Z,4.30
2023-01-28T06:36:26.502Z,4.50
2023-01-28T06:38:54.231Z,4.60
2023-01-28T06:41:23.358Z,4.70
2023-01-28T06:43:51.102Z,4.70
2023-01-28T06:46:18.843Z,4.70
2023-01-28T06:48:46.759Z,4.80
2023-01-28T06:51:14.524Z,4.80
2023-01-28T06:53:42.286Z,4.80
2023-01-28T06:56:10.271Z,4.70
2023-01-28T06:58:39.402Z,4.70
2023-01-28T07:01:07.174Z,4.80
2023-01-28T07:03:35.037Z,4.80
2023-01-28T07:06:02.753Z,4.80
2023-01-28T07:08:30.650Z,4.70
2023-01-28T07:10:58.385Z,4.80
2023-01-28T07:13:26.152Z,4.90
2023-01-28T07:15:55.202Z,4.90
2023-01-28T07:18:23.264Z,4.90
2023-01-28T07:20:51.031Z,4.80
2023-01-28T07:23:18.771Z,4.80
2023-01-28T07:25:46.469Z,4.90
2023-01-28T07:28:14.350Z,4.80
2023-01-28T07:30:42.044Z,4.70
2023-01-28T07:33:11.137Z,4.70
2023-01-28T07:35:38.872Z,4.80
2023-01-28T07:38:06.587Z,4.90
2023-01-28T07:40:34.277Z,5.00
2023-01-28T07:43:01.994Z,5.00
2023-01-28T07:45:30.613Z,5.10
2023-01-28T07:47:59.943Z,5.00
2023-01-28T07:50:30.357Z,4.90
2023-01-28T07:52:58.612Z,4.70
2023-01-28T07:55:28.286Z,4.80
2023-01-28T07:57:59.446Z,4.90
2023-01-28T08:00:28.938Z,5.00
2023-01-28T08:02:58.051Z,5.00
2023-01-28T08:05:28.034Z,4.80
2023-01-28T08:07:58.467Z,4.80
2023-01-28T08:10:26.996Z,4.90
2023-01-28T08:12:55.682Z,4.90
2023-01-28T08:15:23.862Z,4.80
2023-01-28T08:17:51.969Z,4.80
2023-01-28T08:20:19.890Z,4.80
2023-01-28T08:22:47.618Z,4.60
2023-01-28T08:25:16.892Z,4.50
2023-01-28T08:27:44.622Z,4.50
2023-01-28T08:30:13.436Z,4.30
2023-01-28T08:32:41.522Z,4.00
2023-01-28T08:35:09.713Z,4.10
2023-01-28T08:37:37.448Z,4.30
2023-01-28T08:40:06.151Z,4.40
2023-01-28T08:42:35.416Z,4.50
2023-01-28T08:45:03.765Z,4.60
2023-01-28T08:47:31.471Z,4.70
2023-01-28T08:49:59.183Z,4.80
2023-01-28T08:52:26.889Z,4.70
2023-01-28T08:54:54.585Z,4.90
2023-01-28T08:57:22.366Z,4.90
2023-01-28T08:59:51.378Z,5.10
2023-01-28T09:02:30.838Z,5.20
2023-01-28T09:04:59.702Z,5.20
2023-01-28T09:07:27.419Z,5.20
2023-01-28T09:09:55.119Z,5.20
2023-01-28T09:12:23.113Z,5.10
2023-01-28T09:14:52.912Z,5.10
2023-01-28T09:17:20.971Z,5.10
2023-01-28T09:19:48.712Z,5.10
2023-01-28T09:22:16.671Z,5.20
2023-01-28T09:24:44.532Z,5.30
2023-01-28T09:27:12.350Z,5.30
2023-01-28T09:29:40.171Z,5.20
2023-01-28T09:32:09.344Z,5.30
2023-01-28T09:34:37.647Z,5.30
2023-01-28T09:37:05.365Z,5.30
2023-01-28T09:39:33.140Z,5.30
2023-01-28T09:42:17.175Z,5.30
2023-01-28T09:45:01.363Z,5.30
2023-01-28T09:47:34.986Z,5.30
2023-01-28T09:50:08.195Z,5.20
2023-01-28T09:52:38.089Z,5.30
2023-01-28T09:55:08.040Z,5.10
2023-01-28T09:57:42.016Z,5.10
2023-01-28T10:00:17.716Z,5.10
2023-01-28T10:03:02.720Z,5.10
2023-01-28T10:05:40.902Z,5.20
2023-01-28T10:08:26.510Z,5.10
2023-01-28T10:11:04.783Z,5.20
2023-01-28T10:13:39.909Z,5.10
2023-01-28T10:16:19.226Z,5.10
2023-01-28T10:18:53.159Z,5.10
2023-01-28T10:21:25.733Z,5.10
2023-01-28T10:24:00.234Z,5.10
2023-01-28T10:26:33.987Z,5.10
2023-01-28T10:29:07.883Z,4.80
2023-01-28T10:31:40.870Z,4.70
2023-01-28T10:34:11.553Z,4.70
2023-01-28T10:36:39.358Z,4.80
2023-01-28T10:39:09.004Z,4.90
2023-01-28T10:41:39.985Z,5.10
2023-01-28T10:44:19.329Z,4.80
2023-01-28T10:46:50.233Z,4.60
2023-01-28T10:49:25.934Z,4.80
2023-01-28T10:51:53.620Z,4.90
2023-01-28T10:54:23.382Z,5.10
2023-01-28T10:56:54.389Z,5.30
2023-01-28T10:59:27.325Z,5.10
2023-01-28T11:01:57.339Z,5.30
2023-01-28T11:04:29.813Z,5.20
2023-01-28T11:07:01.008Z,5.10
2023-01-28T11:09:31.365Z,5.10
2023-01-28T11:11:59.450Z,5.20
2023-01-28T11:14:28.494Z,5.20
2023-01-28T11:16:58.695Z,5.20
2023-01-28T11:19:32.546Z,4.90
2023-01-28T11:22:00.538Z,4.80
2023-01-28T11:24:31.345Z,4.90
2023-01-28T11:27:02.833Z,5.00
2023-01-28T11:29:33.519Z,4.80
2023-01-28T11:32:02.176Z,4.50
2023-01-28T11:34:35.155Z,4.40
2023-01-28T11:37:05.631Z,4.20
2023-01-28T11:39:33.427Z,4.00
2023-01-28T11:42:16.002Z,4.10
2023-01-28T11:44:44.237Z,4.20
2023-01-28T11:47:21.651Z,4.10
2023-01-28T11:50:05.723Z,4.10
2023-01-28T11:53:05.103Z,4.00
2023-01-28T11:55:46.605Z,3.90
2023-01-28T11:58:28.689Z,4.00
2023-01-28T12:01:03.659Z,4.00
2023-01-28T12:03:44.046Z,4.10
2023-01-28T12:06:23.910Z,4.10
2023-01-28T12:09:00.410Z,4.10
2023-01-28T12:11:54.971Z,4.10
2023-01-28T12:14:34.175Z,4.10
2023-01-28T12:17:15.941Z,4.00
2023-01-28T12:19:59.584Z,4.20
2023-01-28T12:22:53.528Z,4.20
2023-01-28T12:25:29.881Z,4.10
2023-01-28T12:28:09.948Z,4.10
2023-01-28T12:30:49.563Z,4.10
2023-01-28T12:33:38.046Z,4.00
2023-01-28T12:36:20.778Z,4.10
2023-01-28T12:38:58.096Z,4.10
2023-01-28T12:41:30.529Z,4.20
2023-01-28T12:44:02.811Z,4.30
2023-01-28T12:46:42.454Z,4.40
2023-01-28T12:49:15.283Z,4.60
2023-01-28T12:51:58.170Z,4.50
2023-01-28T12:54:32.134Z,4.50
2023-01-28T12:57:00.848Z,4.60
2023-01-28T12:59:33.724Z,4.60
2023-01-28T13:02:24.262Z,4.60
2023-01-28T13:04:58.085Z,4.50
2023-01-28T13:07:29.868Z,4.60
2023-01-28T13:10:06.530Z,4.50
2023-01-28T13:12:34.880Z,4.40
2023-01-28T13:15:03.091Z,4.30
2023-01-28T13:17:32.579Z,4.20
2023-01-28T13:20:01.338Z,4.30
2023-01-28T13:22:32.594Z,4.30
2023-01-28T13:25:20.620Z,4.60
2023-01-28T13:27:57.493Z,5.00
2023-01-28T13:30:28.057Z,5.00
2023-01-28T13:32:58.200Z,4.90
2023-01-28T13:35:32.605Z,5.10
2023-01-28T13:38:07.444Z,5.30
2023-01-28T13:40:37.313Z,5.50
2023-01-28T13:43:07.219Z,5.40
2023-01-28T13:45:35.515Z,5.40
2023-01-28T13:48:19.968Z,5.40
2023-01-28T13:50:48.594Z,5.40
2023-01-28T13:53:26.165Z,5.40
2023-01-28T13:55:59.822Z,5.50
2023-01-28T13:59:18.197Z,5.50
2023-01-28T14:02:11.797Z,5.60
2023-01-28T14:05:18.563Z,5.40
2023-01-28T14:08:19.630Z,5.20
2023-01-28T14:11:03.193Z,4.80
2023-01-28T14:14:15.565Z,4.40
2023-01-28T14:16:52.225Z,4.70
2023-01-28T14:19:27.040Z,4.60
2023-01-28T14:21:55.261Z,4.70
2023-01-28T14:24:23.802Z,4.70
2023-01-28T14:27:01.893Z,4.60
2023-01-28T14:29:44.269Z,4.60
2023-01-28T14:32:16.716Z,4.40
2023-01-28T14:34:45.946Z,4.20
2023-01-28T14:37:16.228Z,4.20
2023-01-28T14:39:47.480Z,4.00
2023-01-28T14:42:22.661Z,3.80
2023-01-28T14:45:00.267Z,4.00
2023-01-28T14:47:45.871Z,4.00
2023-01-28T14:50:36.364Z,4.10
2023-01-28T14:53:26.052Z,4.00
2023-01-28T14:56:00.084Z,4.20
2023-01-28T14:58:34.038Z,4.40
2023-01-28T15:01:02.291Z,4.30
2023-01-28T15:03:31.038Z,4.40
2023-01-28T15:06:06.723Z,4.40
2023-01-28T15:08:35.811Z,4.50
2023-01-28T15:11:04.264Z,4.00
2023-01-28T15:13:38.456Z,3.90
2023-01-28T15:16:08.249Z,3.90
2023-01-28T15:18:38.843Z,4.00
2023-01-28T15:21:06.935Z,4.30
2023-01-28T15:23:36.739Z,4.40
2023-01-28T15:26:08.750Z,4.50
2023-01-28T15:28:40.001Z,4.50
2023-01-28T15:31:08.177Z,4.30
2023-01-28T15:33:36.097Z,4.30
2023-01-28T15:36:04.148Z,4.30
2023-01-28T15:38:31.854Z,4.00
2023-01-28T15:41:02.550Z,4.00
2023-01-28T15:43:32.673Z,4.20
2023-01-28T15:46:01.881Z,4.10
2023-01-28T15:48:32.260Z,4.10
2023-01-28T15:51:02.382Z,4.10
2023-01-28T15:53:34.701Z,3.90
2023-01-28T15:56:08.431Z,3.90
2023-01-28T15:58:41.079Z,3.70
2023-01-28T16:01:19.435Z,3.70
2023-01-28T16:03:49.210Z,3.80
2023-01-28T16:06:21.953Z,3.70
2023-01-28T16:08:55.452Z,3.90
2023-01-28T16:11:25.567Z,3.90
2023-01-28T16:13:53.976Z,3.60
2023-01-28T16:16:33.078Z,3.80
2023-01-28T16:19:03.430Z,4.10
2023-01-28T16:21:34.638Z,4.30
2023-01-28T16:24:05.615Z,4.40
2023-01-28T16:26:35.270Z,4.40
2023-01-28T16:29:14.910Z,4.30
2023-01-28T16:31:44.023Z,4.30
2023-01-28T16:34:12.253Z,4.40
2023-01-28T16:36:40.145Z,4.30
2023-01-28T16:39:07.882Z,4.20
2023-01-28T16:41:40.364Z,4.30
2023-01-28T16:44:08.155Z,4.30
2023-01-28T16:46:36.007Z,4.30
2023-01-28T16:49:05.165Z,4.30
2023-01-28T16:51:33.010Z,4.20
2023-01-28T16:54:00.872Z,4.10
2023-01-28T16:56:44.567Z,3.80
2023-01-28T16:59:14.828Z,3.90
2023-01-28T17:01:42.681Z,3.80
2023-01-28T17:04:13.024Z,3.80
2023-01-28T17:06:42.738Z,3.80
2023-01-28T17:09:11.715Z,3.80
2023-01-28T17:11:40.689Z,4.00
2023-01-28T17:14:08.725Z,4.10
2023-01-28T17:16:36.987Z,4.00
2023-01-28T17:19:04.975Z,4.00
2023-01-28T17:21:34.106Z,4.00
2023-01-28T17:24:03.048Z,3.90
2023-01-28T17:26:30.936Z,3.80
2023-01-28T17:28:58.640Z,3.70
2023-01-28T17:31:27.264Z,3.70
2023-01-28T17:33:56.054Z,3.60
2023-01-28T17:36:25.236Z,3.60
2023-01-28T17:38:55.106Z,3.50
2023-01-28T17:41:23.138Z,3.40
2023-01-28T17:43:51.943Z,3.30
2023-01-28T17:46:20.500Z,3.40
2023-01-28T17:48:49.128Z,3.20
2023-01-28T17:51:18.618Z,3.30
2023-01-28T17:53:47.742Z,3.20
2023-01-28T17:56:22.004Z,2.90
2023-01-28T17:58:51.703Z,3.00
2023-01-28T18:01:19.548Z,2.80
2023-01-28T18:03:47.338Z,2.80
2023-01-28T18:06:15.139Z,2.90
2023-01-28T18:08:42.857Z,3.10
2023-01-28T18:11:12.644Z,3.20
2023-01-28T18:13:42.525Z,3.10
2023-01-28T18:16:14.852Z,3.00
2023-01-28T18:18:42.908Z,3.00
2023-01-28T18:21:22.225Z,3.10
2023-01-28T18:23:52.998Z,2.90
2023-01-28T18:26:20.817Z,2.80
2023-01-28T18:28:49.866Z,2.80
2023-01-28T18:31:17.688Z,2.90
2023-01-28T18:33:45.559Z,3.10
2023-01-28T18:36:13.243Z,3.10
2023-01-28T18:38:41.070Z,3.10
2023-01-28T18:41:08.880Z,2.90
2023-01-28T18:43:36.748Z,2.90
2023-01-28T18:46:13.050Z,3.00
2023-01-28T18:48:41.409Z,3.00
2023-01-28T18:51:27.755Z,2.90
2023-01-28T18:53:59.071Z,2.80
2023-01-28T18:56:27.248Z,2.60
2023-01-28T18:58:58.462Z,2.50
2023-01-28T19:01:28.324Z,2.50
2023-01-28T19:03:57.175Z,2.40
2023-01-28T19:06:25.538Z,2.40
2023-01-28T19:08:54.657Z,2.30
2023-01-28T19:11:23.064Z,2.30
2023-01-28T19:13:51.234Z,2.40
2023-01-28T19:16:19.358Z,2.40
2023-01-28T19:18:54.038Z,2.50
2023-01-28T19:21:22.589Z,2.60
2023-01-28T19:23:56.329Z,2.50
2023-01-28T19:26:24.725Z,2.60
2023-01-28T19:28:52.611Z,2.60
2023-01-28T19:31:22.120Z,2.50
2023-01-28T19:33:50.543Z,2.50
2023-01-28T19:36:19.637Z,2.60
2023-01-28T19:38:47.356Z,2.50
2023-01-28T19:41:16.956Z,2.60
2023-01-28T19:43:46.175Z,2.60
2023-01-28T19:46:17.942Z,2.60
2023-01-28T19:48:46.198Z,2.60
2023-01-28T19:51:15.020Z,2.50
2023-01-28T19:53:45.279Z,2.10
2023-01-28T19:56:15.178Z,2.20
2023-01-28T19:58:44.663Z,2.20
2023-01-28T20:01:14.572Z,2.10
2023-01-28T20:03:42.653Z,2.20
2023-01-28T20:06:13.229Z,2.20
2023-01-28T20:08:40.987Z,2.20
2023-01-28T20:11:12.052Z,2.20
2023-01-28T20:13:41.651Z,2.20
2023-01-28T20:16:12.360Z,2.20
2023-01-28T20:18:40.061Z,2.10
2023-01-28T20:21:08.188Z,2.10
2023-01-28T20:23:35.892Z,2.00
2023-01-28T20:26:03.596Z,1.80
2023-01-28T20:28:32.700Z,2.00
2023-01-28T20:31:05.302Z,2.10
2023-01-28T20:33:33.136Z,2.10
2023-01-28T20:36:05.146Z,1.90
2023-01-28T20:38:35.685Z,1.70
2023-01-28T20:41:07.072Z,1.60
2023-01-28T20:43:36.441Z,1.80
2023-01-28T20:46:05.372Z,2.00
2023-01-28T20:48:33.171Z,1.90
2023-01-28T20:51:06.481Z,1.90
2023-01-28T20:53:34.620Z,2.00
2023-01-28T20:56:02.840Z,2.10
2023-01-28T20:58:31.402Z,2.00
2023-01-28T21:01:00.946Z,2.10
2023-01-28T21:03:28.690Z,2.10
2023-01-28T21:05:56.441Z,2.20
2023-01-28T21:08:24.281Z,2.20
2023-01-28T21:10:51.967Z,2.30
2023-01-28T21:13:19.691Z,2.40
2023-01-28T21:15:54.996Z,2.40
2023-01-28T21:18:24.832Z,2.30
2023-01-28T21:20:54.999Z,2.40
2023-01-28T21:23:24.522Z,2.40
2023-01-28T21:25:52.924Z,2.30
2023-01-28T21:28:21.232Z,2.30
2023-01-28T21:30:49.200Z,2.20
2023-01-28T21:33:17.235Z,2.20
2023-01-28T21:35:46.299Z,2.20
2023-01-28T21:38:14.175Z,2.10
2023-01-28T21:40:42.177Z,2.00
2023-01-28T21:43:11.887Z,2.00
2023-01-28T21:45:41.231Z,2.10
2023-01-28T21:48:09.201Z,2.10
2023-01-28T21:50:57.396Z,2.10
2023-01-28T21:53:26.443Z,2.10
2023-01-28T21:55:54.120Z,2.10
2023-01-28T21:58:39.632Z,1.90
2023-01-28T22:01:10.724Z,1.80
2023-01-28T22:03:38.551Z,1.60
2023-01-28T22:06:06.953Z,1.50
2023-01-28T22:08:36.180Z,1.50
2023-01-28T22:11:04.444Z,1.50
2023-01-28T22:13:34.694Z,1.60
2023-01-28T22:16:02.931Z,1.50
2023-01-28T22:18:30.827Z,1.50
2023-01-28T22:20:59.122Z,1.70
2023-01-28T22:23:27.202Z,1.70
2023-01-28T22:25:57.531Z,1.70
2023-01-28T22:28:25.701Z,1.70
2023-01-28T22:30:56.849Z,1.60
2023-01-28T22:33:26.064Z,1.60
2023-01-28T22:35:55.660Z,1.50
2023-01-28T22:38:23.397Z,1.50
2023-01-28T22:40:51.085Z,1.50
2023-01-28T22:43:20.114Z,1.60
2023-01-28T22:45:47.824Z,1.50
2023-01-28T22:48:15.559Z,1.60
2023-01-28T22:50:43.336Z,1.60
2023-01-28T22:53:11.062Z,1.60
2023-01-28T22:55:38.942Z,1.50
2023-01-28T22:58:07.253Z,1.60
2023-01-28T23:00:37.133Z,1.60
2023-01-28T23:03:05.423Z,1.60
2023-01-28T23:05:33.547Z,1.70
2023-01-28T23:08:10.849Z,1.70
2023-01-28T23:10:39.065Z,1.60
2023-01-28T23:13:07.008Z,1.40
2023-01-28T23:15:53.587Z,1.30
2023-01-28T23:18:40.804Z,1.40
2023-01-28T23:21:33.190Z,1.30
2023-01-28T23:24:18.711Z,1.30
2023-01-28T23:26:46.516Z,1.30
2023-01-28T23:29:14.206Z,1.30
2023-01-28T23:31:46.495Z,1.40
2023-01-28T23:34:15.133Z,1.30
2023-01-28T23:36:43.209Z,1.30
2023-01-28T23:39:10.998Z,1.20
2023-01-28T23:41:38.695Z,1.10
2023-01-28T23:44:06.674Z,1.10
2023-01-28T23:46:39.866Z,0.90
2023-01-28T23:49:09.979Z,0.90
2023-01-28T23:51:37.767Z,1.10
2023-01-28T23:54:06.321Z,1.20
2023-01-28T23:56:35.083Z,1.30
2023-01-28T23:59:03.497Z,1.20
